Redwood City, CA (94064)

02:41 AM PDT die 20o October, anno 2014 (GMT -0700)
Redwood City Hills | Change Station
CLOSE
Current Station
Personal Weather Stations
Location: Redwood City, CA
Elevation: 170 ft
Nearby Weather Stations

Elev 170 ft 37.47 °N, 122.25 °W | Updated 9 seconds ago

Aequaliter Nubila
Aequaliter Nubila
61.9 °F
Feels Like 61.9 °F
N
0.0
Ventus Variabilis Ventus from Inter Aquilonem et Zephyrus
Gusts 0.0 mph

Hodie
High -- | Low -- °F
--% Chance of Precip.
Yesterday
High -- | Low -- °F
Precip. -- in
7:21 AM 6:25 PM
Waning Crescent, 12% visible
Pressio 29.94 in
Visibilitas 10.0 milia passuum
Clouds Aequaliter Nubila 2100 ft
Frigus in quo Ros apparet 55 °F
Umor 79%
Rainfall 0.00 in
Snow Depth Not available.
UV 0 out of 12
Pollen 2.00 out of 12
Ozone Good
PM2.5 Good
Flu Activity Sporadic
METAR KSQL 200935Z AUTO 00000KT 10SM OVC021 17/13 A2994 RMK AO2

More Conditions Fewer Conditions

Pressio 29.94 in
Visibilitas 10.0 milia passuum
Clouds Aequaliter Nubila 2100 ft
Frigus in quo Ros apparet 55 °F
Umor 79%
Rainfall 0.00 in
Snow Depth Not available.
UV 0 out of 12
Pollen 2.00 out of 12
Ozone Good
PM2.5 Good
Flu Activity Sporadic
METAR KSQL 200935Z AUTO 00000KT 10SM OVC021 17/13 A2994 RMK AO2

More Conditions Fewer Conditions

10-Day Weather Forecast

Almanac

Astronomy

Oct. 20, 2014 Rise Set
Actual Time 7:21 AM PDT 6:25 PM PDT
Civil Twilight 6:55 AM PDT 6:51 PM PDT
Nautical Twilight 6:25 AM PDT 7:21 PM PDT
Astronomical Twilight 5:54 AM PDT 7:52 PM PDT
Moon 4:18 AM PDT 4:47 PM PDT
Length Of Visible Light 11h 56m
Length of Day
11h 03m
Waning Crescent, 12% of the Moon is Illuminated
Hodie
Waning Crescent
Oct 23
New
Oct 30
First Quarter
Nov 6
Full
Nov 14
Last Quarter

Today's Extremes

State Highs State Lows

Community

WunderPhotos

Upload Photos

1,763,325 photos uploaded!

Nearby

Air Quality

  Air Quality AQ Index Pollutant
Yesterday Good
OZONE
Yesterday Good
PM2.5
Current Good
OZONE
Current Good
PM2.5
Die Lunae Good
PM2.5
Die Martis Good
PM2.5
Die Mercurii Good
PM2.5

Snow Depth

Station Depth Elevation
Blue Lakes 0 in 8000 ft
Forestdale Creek 0 in 8029 ft
Echo Peak 1 in 7800 ft
Ebbetts Pass 0 in 8700 ft
Leavitt Lake 1 in 9400 ft

Earthquake Activity

City Distance Mag. Time & Date
Cobb, California 100 milia passuum 2.5 9:25 PM PDT
2014-10-19
Soledad, California 88 milia passuum 2.6 3:21 PM PDT
2014-10-18
East Foothills, California 29 milia passuum 2.6 8:16 AM PDT
2014-10-18
Minimum magnitude displayed is 2.5.

Coastal Water Temperatures

Locus Calor
No Stations Reporting

Nearby Weather Stations